Time;durP1;ratioP1;P1;durP2;ratioP2;P2;SDS_P1;SDS_P2;PMS_P1;PMS_P2;Temp;Humidity;BMP_temperature;BMP_pressure;BME280_temperature;BME280_humidity;BME280_pressure;Samples;Min_cycle;Max_cycle;Signal;HPM_P1;HPM_P2
2021/10/26 00:02:23;;;;;;;;;;;11.80;1.00;;;;;;5054664;28;20003;-79
2021/10/26 00:04:49;;;;;;;;;;;11.80;1.00;;;;;;5054140;28;19970;-79
2021/10/26 00:07:14;;;;;;;;;;;11.80;1.00;;;;;;5054548;28;20007;-78
2021/10/26 00:09:41;;;;;;;;;;;11.80;1.00;;;;;;5055522;28;20360;-78
2021/10/26 00:12:07;;;;;;;;;;;11.70;1.00;;;;;;5074746;28;19912;-78
2021/10/26 00:14:33;;;;;;;;;;;11.80;1.00;;;;;;5076121;28;20003;-77
2021/10/26 00:16:58;;;;;;;;;;;11.80;1.00;;;;;;5074073;28;20363;-78
2021/10/26 00:19:24;;;;;;;;;;;11.80;1.00;;;;;;5073602;28;20046;-79
2021/10/26 00:21:50;;;;;;;;;;;11.70;1.00;;;;;;5079572;28;19915;-79
2021/10/26 00:24:16;;;;;;;;;;;11.70;1.00;;;;;;5083585;28;20318;-78
2021/10/26 00:26:41;;;;;;;;;;;11.60;1.00;;;;;;5074097;28;20322;-77
2021/10/26 00:29:07;;;;;;;;;;;11.60;1.00;;;;;;5073621;28;19968;-77
2021/10/26 00:31:33;;;;;;;;;;;11.60;1.00;;;;;;5065260;28;20006;-78
2021/10/26 00:33:58;;;;;;;;;;;11.70;1.00;;;;;;5065628;28;19913;-78
2021/10/26 00:36:24;;;;;;;;;;;11.70;1.00;;;;;;5074780;28;19909;-78
2021/10/26 00:38:50;;;;;;;;;;;11.60;1.00;;;;;;5073660;28;20277;-78
2021/10/26 00:41:15;;;;;;;;;;;11.60;1.00;;;;;;5076814;28;19908;-79
2021/10/26 00:43:41;;;;;;;;;;;11.60;1.00;;;;;;5056240;28;20383;-79
2021/10/26 00:46:07;;;;;;;;;;;11.60;1.00;;;;;;5076106;28;19977;-79
2021/10/26 00:48:32;;;;;;;;;;;11.60;1.00;;;;;;5073592;28;20360;-79
2021/10/26 00:50:58;;;;;;;;;;;11.60;1.00;;;;;;5063789;28;19975;-78
2021/10/26 00:53:24;;;;;;;;;;;11.60;1.00;;;;;;5057379;28;19931;-79
2021/10/26 00:55:49;;;;;;;;;;;11.60;1.00;;;;;;5074030;28;19920;-78
2021/10/26 00:58:15;;;;;;;;;;;11.60;1.00;;;;;;5073621;28;20309;-79
2021/10/26 01:00:41;;;;;;;;;;;11.70;1.00;;;;;;5077252;28;20384;-78
2021/10/26 01:03:06;;;;;;;;;;;11.70;1.00;;;;;;5075983;28;19920;-79
2021/10/26 01:05:32;;;;;;;;;;;11.70;1.00;;;;;;5078909;28;19915;-78
2021/10/26 01:07:57;;;;;;;;;;;11.70;1.00;;;;;;5070433;28;20352;-79
2021/10/26 01:10:23;;;;;;;;;;;11.70;1.00;;;;;;5077000;28;19908;-79
2021/10/26 01:12:49;;;;;;;;;;;11.70;1.00;;;;;;5072943;28;19974;-79
2021/10/26 01:15:15;;;;;;;;;;;11.70;1.00;;;;;;5073262;28;19954;-79
2021/10/26 01:17:41;;;;;;;;;;;11.70;1.00;;;;;;5079582;28;19908;-78
2021/10/26 01:20:07;;;;;;;;;;;11.60;1.00;;;;;;5080863;22;20291;-82
2021/10/26 01:22:39;;;;;;;;;;;11.60;1.00;;;;;;5039597;28;20003;-83
2021/10/26 01:25:05;;;;;;;;;;;11.50;1.00;;;;;;5056415;28;19909;-83
2021/10/26 01:27:31;;;;;;;;;;;11.50;1.00;;;;;;5054430;28;19944;-83
2021/10/26 01:29:56;;;;;;;;;;;11.50;1.00;;;;;;5063944;28;19912;-83
2021/10/26 01:32:22;;;;;;;;;;;11.50;1.00;;;;;;5069352;28;19928;-83
2021/10/26 01:34:47;;;;;;;;;;;11.50;1.00;;;;;;5078439;28;19908;-83
2021/10/26 01:37:13;;;;;;;;;;;11.50;1.00;;;;;;5076045;28;19954;-83
2021/10/26 01:39:39;;;;;;;;;;;11.40;1.00;;;;;;5080333;28;19955;-83
2021/10/26 01:42:06;;;;;;;;;;;11.40;1.00;;;;;;5070326;28;19954;-83
2021/10/26 01:44:31;;;;;;;;;;;11.40;1.00;;;;;;5075917;28;19909;-83
2021/10/26 01:46:57;;;;;;;;;;;11.40;1.00;;;;;;5064531;28;19966;-83
2021/10/26 01:49:22;;;;;;;;;;;11.40;1.00;;;;;;5069185;28;19912;-83
2021/10/26 01:51:49;;;;;;;;;;;11.40;1.00;;;;;;5078476;28;20390;-83
2021/10/26 01:54:15;;;;;;;;;;;11.50;1.00;;;;;;5076418;28;19909;-83
2021/10/26 01:56:42;;;;;;;;;;;11.50;1.00;;;;;;5074713;28;19909;-83
2021/10/26 01:59:08;;;;;;;;;;;11.50;1.00;;;;;;5076178;28;20486;-82
2021/10/26 02:01:33;;;;;;;;;;;11.60;1.00;;;;;;5077213;28;20356;-83
2021/10/26 02:03:59;;;;;;;;;;;11.60;1.00;;;;;;5078433;28;19915;-83
2021/10/26 02:06:25;;;;;;;;;;;11.60;1.00;;;;;;5075001;28;19909;-83
2021/10/26 02:08:50;;;;;;;;;;;11.60;1.00;;;;;;5075721;28;19908;-83
2021/10/26 02:11:16;;;;;;;;;;;11.60;1.00;;;;;;5075918;28;19931;-83
2021/10/26 02:13:42;;;;;;;;;;;11.70;1.00;;;;;;5076836;28;19915;-83
2021/10/26 02:16:07;;;;;;;;;;;11.70;1.00;;;;;;5057086;28;20379;-83
2021/10/26 02:18:33;;;;;;;;;;;11.70;1.00;;;;;;5074853;28;19912;-83
2021/10/26 02:20:59;;;;;;;;;;;11.70;1.00;;;;;;5056674;28;19912;-84
2021/10/26 02:23:24;;;;;;;;;;;11.70;1.00;;;;;;5076281;28;20272;-84
2021/10/26 02:25:50;;;;;;;;;;;11.70;1.00;;;;;;5075260;28;19917;-84
2021/10/26 02:28:15;;;;;;;;;;;11.80;1.00;;;;;;5084565;28;19908;-82
2021/10/26 02:30:41;;;;;;;;;;;11.70;1.00;;;;;;5079277;28;19909;-84
2021/10/26 02:33:07;;;;;;;;;;;11.80;1.00;;;;;;5059433;28;19913;-83
2021/10/26 02:35:33;;;;;;;;;;;11.80;1.00;;;;;;5077260;28;20003;-84
2021/10/26 02:38:00;;;;;;;;;;;11.80;1.00;;;;;;5079226;28;19935;-84
2021/10/26 02:40:26;;;;;;;;;;;11.80;1.00;;;;;;5076748;28;19916;-84
2021/10/26 02:42:51;;;;;;;;;;;11.80;1.00;;;;;;5075853;28;20260;-84
2021/10/26 02:45:19;;;;;;;;;;;11.80;1.00;;;;;;5075692;28;19923;-84
2021/10/26 02:47:44;;;;;;;;;;;11.80;1.00;;;;;;5079084;28;19916;-84
2021/10/26 02:50:10;;;;;;;;;;;11.80;1.00;;;;;;5078997;28;20288;-84
2021/10/26 02:52:38;;;;;;;;;;;11.80;1.00;;;;;;5059993;28;19919;-84
2021/10/26 02:55:04;;;;;;;;;;;11.70;1.00;;;;;;5083023;28;20253;-84
2021/10/26 02:57:29;;;;;;;;;;;11.70;1.00;;;;;;5077994;28;20019;-84
2021/10/26 02:59:55;;;;;;;;;;;11.70;1.00;;;;;;5079188;28;19947;-84
2021/10/26 03:02:20;;;;;;;;;;;11.70;1.00;;;;;;5060621;28;19908;-84
2021/10/26 03:04:46;;;;;;;;;;;11.70;1.00;;;;;;5063077;28;20396;-84
2021/10/26 03:07:11;;;;;;;;;;;11.60;1.00;;;;;;5063958;28;19909;-84
2021/10/26 03:09:36;;;;;;;;;;;11.60;1.00;;;;;;5060696;28;20003;-84
2021/10/26 03:12:02;;;;;;;;;;;11.60;1.00;;;;;;5088219;28;20515;-84
2021/10/26 03:14:28;;;;;;;;;;;11.50;1.00;;;;;;5079275;28;19916;-84
2021/10/26 03:16:53;;;;;;;;;;;11.50;1.00;;;;;;5079523;28;19932;-84
2021/10/26 03:19:19;;;;;;;;;;;11.40;1.00;;;;;;5064112;28;19912;-84
2021/10/26 03:21:44;;;;;;;;;;;11.40;1.00;;;;;;5080598;28;19979;-84
2021/10/26 03:24:10;;;;;;;;;;;11.30;1.00;;;;;;5077981;28;19939;-85
2021/10/26 03:26:36;;;;;;;;;;;11.30;1.00;;;;;;5079659;28;19915;-84
2021/10/26 03:29:01;;;;;;;;;;;11.20;1.00;;;;;;5078732;28;20538;-83
2021/10/26 03:31:27;;;;;;;;;;;11.20;1.00;;;;;;5081644;28;19912;-84
2021/10/26 03:33:52;;;;;;;;;;;11.20;1.00;;;;;;5083342;28;20007;-84
2021/10/26 03:36:18;;;;;;;;;;;11.20;1.00;;;;;;5080724;28;21502;-84
2021/10/26 03:38:43;;;;;;;;;;;11.20;1.00;;;;;;5080002;28;19921;-84
2021/10/26 03:41:09;;;;;;;;;;;11.20;1.00;;;;;;5078129;28;19958;-84
2021/10/26 03:43:35;;;;;;;;;;;11.20;1.00;;;;;;5077349;28;20291;-84
2021/10/26 03:46:00;;;;;;;;;;;11.20;1.00;;;;;;5080218;28;19908;-83
2021/10/26 03:48:27;;;;;;;;;;;11.20;1.00;;;;;;5085291;28;20338;-84
2021/10/26 03:50:53;;;;;;;;;;;11.20;1.00;;;;;;5058604;28;19912;-84
2021/10/26 03:53:18;;;;;;;;;;;11.20;1.00;;;;;;5078957;28;19908;-84
2021/10/26 03:55:44;;;;;;;;;;;11.30;1.00;;;;;;5052688;28;19915;-84
2021/10/26 03:58:09;;;;;;;;;;;11.30;1.00;;;;;;5080159;28;19908;-84
2021/10/26 04:00:35;;;;;;;;;;;11.30;1.00;;;;;;5081757;28;19916;-84
2021/10/26 04:03:01;;;;;;;;;;;11.40;1.00;;;;;;5084643;28;19916;-85
2021/10/26 04:05:41;;;;;;;;;;;11.40;1.00;;;;;;5086057;28;19909;-84
2021/10/26 04:08:22;;;;;;;;;;;11.50;1.00;;;;;;5085677;28;19908;-84
2021/10/26 04:10:52;;;;;;;;;;;11.50;1.00;;;;;;5082388;28;19915;-84
2021/10/26 04:13:20;;;;;;;;;;;11.50;1.00;;;;;;5082976;28;19912;-84
2021/10/26 04:15:45;;;;;;;;;;;11.50;1.00;;;;;;5056007;28;20012;-84
2021/10/26 04:18:11;;;;;;;;;;;11.60;1.00;;;;;;5082622;28;19944;-84
2021/10/26 04:20:36;;;;;;;;;;;11.60;1.00;;;;;;5061637;28;19912;-84
2021/10/26 04:23:02;;;;;;;;;;;11.60;1.00;;;;;;5090029;28;19916;-84
2021/10/26 04:25:28;;;;;;;;;;;11.60;1.00;;;;;;5085853;28;19908;-84
2021/10/26 04:27:54;;;;;;;;;;;11.60;1.00;;;;;;5082691;28;19914;-84
2021/10/26 04:30:21;;;;;;;;;;;11.70;1.00;;;;;;5056424;28;19908;-84
2021/10/26 04:32:47;;;;;;;;;;;11.70;1.00;;;;;;5076834;28;20368;-84
2021/10/26 04:35:13;;;;;;;;;;;11.70;1.00;;;;;;5060651;28;20017;-85
2021/10/26 04:37:39;;;;;;;;;;;11.70;1.00;;;;;;5079887;28;20415;-84
2021/10/26 04:40:05;;;;;;;;;;;11.70;1.00;;;;;;5064769;28;19915;-84
2021/10/26 04:42:32;;;;;;;;;;;11.70;1.00;;;;;;5078299;28;19908;-84
2021/10/26 04:44:57;;;;;;;;;;;11.70;1.00;;;;;;5079342;28;20387;-84
2021/10/26 04:47:25;;;;;;;;;;;11.70;1.00;;;;;;5077533;28;19912;-84
2021/10/26 04:49:50;;;;;;;;;;;11.80;1.00;;;;;;5077435;28;19908;-84
2021/10/26 04:52:15;;;;;;;;;;;11.80;1.00;;;;;;5078585;28;19919;-84
2021/10/26 04:54:41;;;;;;;;;;;11.80;1.00;;;;;;5077155;28;20369;-85
2021/10/26 04:57:06;;;;;;;;;;;11.80;1.00;;;;;;5076037;28;19917;-84
2021/10/26 04:59:33;;;;;;;;;;;11.80;1.00;;;;;;5075812;28;20019;-84
2021/10/26 05:01:58;;;;;;;;;;;11.80;1.00;;;;;;5057927;28;20507;-84
2021/10/26 05:04:23;;;;;;;;;;;11.80;1.00;;;;;;5075906;28;19916;-84
2021/10/26 05:06:49;;;;;;;;;;;11.80;1.00;;;;;;5076013;28;20011;-83
2021/10/26 05:09:15;;;;;;;;;;;11.80;1.00;;;;;;5076308;28;19951;-84
2021/10/26 05:11:40;;;;;;;;;;;11.80;1.00;;;;;;5079989;28;20337;-84
2021/10/26 05:14:06;;;;;;;;;;;11.70;1.00;;;;;;5081345;28;20301;-83
2021/10/26 05:16:32;;;;;;;;;;;11.70;1.00;;;;;;5075560;28;20300;-84
2021/10/26 05:19:01;;;;;;;;;;;11.60;1.00;;;;;;5078467;28;19916;-83
2021/10/26 05:21:26;;;;;;;;;;;11.60;1.00;;;;;;5075297;28;19912;-84
2021/10/26 05:23:52;;;;;;;;;;;11.50;1.00;;;;;;5058399;28;19912;-84
2021/10/26 05:26:21;;;;;;;;;;;11.50;1.00;;;;;;5077145;28;19935;-83
2021/10/26 05:28:49;;;;;;;;;;;11.40;1.00;;;;;;5058814;28;19908;-83
2021/10/26 05:31:15;;;;;;;;;;;11.40;1.00;;;;;;5078729;28;19958;-83
2021/10/26 05:33:41;;;;;;;;;;;11.30;1.00;;;;;;5081620;28;19916;-83
2021/10/26 05:36:06;;;;;;;;;;;11.30;1.00;;;;;;5088522;28;19913;-83
2021/10/26 05:38:32;;;;;;;;;;;11.30;1.00;;;;;;5073732;28;19916;-83
2021/10/26 05:40:58;;;;;;;;;;;11.30;1.00;;;;;;5076158;28;19921;-83
2021/10/26 05:43:24;;;;;;;;;;;11.30;1.00;;;;;;5074026;28;19908;-83
2021/10/26 05:45:49;;;;;;;;;;;11.40;1.00;;;;;;5081302;28;19954;-83
2021/10/26 05:48:16;;;;;;;;;;;11.30;1.00;;;;;;5069328;28;20319;-83
2021/10/26 05:50:42;;;;;;;;;;;11.40;1.00;;;;;;5076824;28;19912;-82
2021/10/26 05:53:08;;;;;;;;;;;11.40;1.00;;;;;;5075740;28;19917;-83
2021/10/26 05:55:34;;;;;;;;;;;11.40;1.00;;;;;;5060145;28;20356;-84
2021/10/26 05:57:59;;;;;;;;;;;11.50;1.00;;;;;;5076656;28;19909;-83
2021/10/26 06:00:25;;;;;;;;;;;11.60;1.00;;;;;;5057522;28;19919;-83
2021/10/26 06:02:51;;;;;;;;;;;11.70;1.00;;;;;;5078146;28;19915;-83
2021/10/26 06:05:17;;;;;;;;;;;11.70;1.00;;;;;;5067966;28;19908;-83
2021/10/26 06:07:43;;;;;;;;;;;11.80;1.00;;;;;;5075788;28;20273;-83
2021/10/26 06:10:10;;;;;;;;;;;11.80;1.00;;;;;;5058639;28;19909;-83
2021/10/26 06:12:39;;;;;;;;;;;11.80;1.00;;;;;;5066674;28;19913;-82
2021/10/26 06:15:07;;;;;;;;;;;11.80;1.00;;;;;;5080331;28;19962;-82
2021/10/26 06:17:32;;;;;;;;;;;11.90;1.00;;;;;;5077289;28;19920;-83
2021/10/26 06:19:58;;;;;;;;;;;11.90;1.00;;;;;;5056653;28;19912;-82
2021/10/26 06:22:23;;;;;;;;;;;11.90;1.00;;;;;;5076526;28;19909;-82
2021/10/26 06:24:49;;;;;;;;;;;11.90;1.00;;;;;;5078312;28;19908;-82
2021/10/26 06:27:14;;;;;;;;;;;12.00;1.00;;;;;;5084789;28;19908;-82
2021/10/26 06:29:40;;;;;;;;;;;12.00;1.00;;;;;;5056223;28;19995;-82
2021/10/26 06:32:06;;;;;;;;;;;12.00;1.00;;;;;;5083795;28;19913;-82
2021/10/26 06:34:31;;;;;;;;;;;12.00;1.00;;;;;;5088357;28;20015;-83
2021/10/26 06:36:57;;;;;;;;;;;12.00;1.00;;;;;;5082867;28;19950;-83
2021/10/26 06:39:22;;;;;;;;;;;12.00;1.00;;;;;;5078599;28;19908;-83
2021/10/26 06:41:48;;;;;;;;;;;12.10;1.00;;;;;;5078749;28;19912;-83
2021/10/26 06:44:14;;;;;;;;;;;12.10;1.00;;;;;;5086884;28;20349;-83
2021/10/26 06:46:39;;;;;;;;;;;12.10;1.00;;;;;;5078513;28;19934;-83
2021/10/26 06:49:05;;;;;;;;;;;12.10;1.00;;;;;;5081984;28;19908;-83
2021/10/26 06:51:31;;;;;;;;;;;12.20;1.00;;;;;;5069210;28;19913;-83
2021/10/26 06:53:57;;;;;;;;;;;12.20;1.00;;;;;;5079613;28;19915;-83
2021/10/26 06:56:23;;;;;;;;;;;12.20;1.00;;;;;;5071908;28;19956;-82
2021/10/26 06:58:48;;;;;;;;;;;12.30;1.00;;;;;;5072960;28;19919;-83
2021/10/26 07:01:14;;;;;;;;;;;12.30;1.00;;;;;;5076887;28;20253;-83
2021/10/26 07:03:40;;;;;;;;;;;12.30;1.00;;;;;;5074308;28;19931;-83
2021/10/26 07:06:06;;;;;;;;;;;12.40;1.00;;;;;;5060529;28;19962;-83
2021/10/26 07:08:33;;;;;;;;;;;12.40;1.00;;;;;;5085166;28;19979;-83
2021/10/26 07:10:59;;;;;;;;;;;12.40;1.00;;;;;;5083928;28;19918;-83
2021/10/26 07:13:25;;;;;;;;;;;12.50;1.00;;;;;;5083594;28;19983;-83
2021/10/26 07:15:50;;;;;;;;;;;12.50;1.00;;;;;;5064210;28;19990;-82
2021/10/26 07:18:16;;;;;;;;;;;12.50;1.00;;;;;;5080716;28;20364;-83
2021/10/26 07:20:42;;;;;;;;;;;12.50;1.00;;;;;;5081439;28;19917;-82
2021/10/26 07:23:07;;;;;;;;;;;12.60;1.00;;;;;;5080128;28;19962;-83
2021/10/26 07:25:33;;;;;;;;;;;12.70;1.00;;;;;;5079552;28;19920;-82
2021/10/26 07:27:59;;;;;;;;;;;12.70;1.00;;;;;;5079239;28;20003;-82
2021/10/26 07:30:28;;;;;;;;;;;12.80;1.00;;;;;;5059943;28;19909;-82
2021/10/26 07:32:56;;;;;;;;;;;12.90;1.00;;;;;;5078293;28;20006;-83
2021/10/26 07:35:21;;;;;;;;;;;12.90;1.00;;;;;;5077944;28;19908;-82
2021/10/26 07:37:47;;;;;;;;;;;13.00;1.00;;;;;;5053138;28;19915;-82
2021/10/26 07:40:14;;;;;;;;;;;13.00;1.00;;;;;;5079726;28;19950;-82
2021/10/26 07:42:39;;;;;;;;;;;13.00;99.90;;;;;;5078773;28;19916;-83
2021/10/26 07:45:06;;;;;;;;;;;13.00;99.90;;;;;;5077373;28;19908;-82
2021/10/26 07:47:31;;;;;;;;;;;13.00;99.90;;;;;;5077430;28;19915;-83
2021/10/26 07:49:58;;;;;;;;;;;13.10;99.90;;;;;;5077254;28;19908;-82
2021/10/26 07:52:23;;;;;;;;;;;13.10;99.90;;;;;;5058431;28;19919;-83
2021/10/26 07:54:55;;;;;;;;;;;13.20;99.90;;;;;;5091423;28;19908;-83
2021/10/26 07:57:21;;;;;;;;;;;13.20;99.90;;;;;;5078047;28;19915;-83
2021/10/26 07:59:47;;;;;;;;;;;13.30;99.90;;;;;;5075498;28;19908;-83
2021/10/26 08:02:19;;;;;;;;;;;13.30;99.90;;;;;;5076474;28;20291;-83
2021/10/26 08:04:45;;;;;;;;;;;13.40;99.90;;;;;;5058905;28;20376;-83
2021/10/26 08:07:11;;;;;;;;;;;13.60;80.00;;;;;;5077571;28;19908;-83
2021/10/26 08:09:37;;;;;;;;;;;13.70;1.00;;;;;;5057109;28;19955;-83
2021/10/26 08:12:02;;;;;;;;;;;13.80;99.90;;;;;;5076184;28;19912;-83
2021/10/26 08:14:28;;;;;;;;;;;14.00;99.90;;;;;;5074464;28;19951;-83
2021/10/26 08:16:54;;;;;;;;;;;14.00;99.90;;;;;;5078023;28;19994;-84
2021/10/26 08:19:19;;;;;;;;;;;14.10;1.00;;;;;;5059932;28;19973;-83
2021/10/26 08:21:46;;;;;;;;;;;14.20;99.90;;;;;;5078436;28;19908;-83
2021/10/26 08:24:12;;;;;;;;;;;14.40;1.00;;;;;;5077933;28;19916;-84
2021/10/26 08:26:40;;;;;;;;;;;14.70;99.90;;;;;;5082718;28;19954;-83
2021/10/26 08:31:41;;;;;;;;;;;15.50;99.90;;;;;;5076933;28;20347;-84
2021/10/26 08:34:17;;;;;;;;;;;15.70;1.00;;;;;;5077104;28;19908;-84
2021/10/26 08:36:44;;;;;;;;;;;16.20;99.90;;;;;;5077063;28;19912;-84
2021/10/26 08:39:11;;;;;;;;;;;17.20;99.90;;;;;;5057989;28;20291;-84
2021/10/26 08:41:38;;;;;;;;;;;20.10;1.00;;;;;;5081045;28;19908;-85
2021/10/26 08:44:04;;;;;;;;;;;22.70;1.00;;;;;;5074029;28;19970;-85
2021/10/26 08:46:30;;;;;;;;;;;24.90;1.00;;;;;;5073859;28;19912;-85
2021/10/26 08:48:56;;;;;;;;;;;26.60;1.00;;;;;;5053484;28;19908;-85
2021/10/26 08:51:24;;;;;;;;;;;27.90;1.00;;;;;;5072985;28;19912;-85
2021/10/26 08:53:51;;;;;;;;;;;29.00;1.00;;;;;;5074285;28;19912;-85
2021/10/26 08:56:16;;;;;;;;;;;30.00;1.00;;;;;;5073125;28;20263;-85
2021/10/26 08:58:43;;;;;;;;;;;29.90;99.90;;;;;;5074676;28;19919;-83
2021/10/26 09:01:09;;;;;;;;;;;28.90;99.90;;;;;;5074720;28;19995;-84
2021/10/26 09:03:36;;;;;;;;;;;28.60;99.90;;;;;;5074358;28;19962;-84
2021/10/26 09:06:03;;;;;;;;;;;27.90;99.90;;;;;;5056652;28;20338;-85
2021/10/26 09:08:28;;;;;;;;;;;27.50;99.90;;;;;;5074543;28;19908;-84
2021/10/26 09:10:56;;;;;;;;;;;26.40;99.90;;;;;;5074304;28;19912;-84
2021/10/26 09:16:40;;;;;;;;;;;24.80;99.90;;;;;;5081915;28;20272;-84
2021/10/26 09:19:16;;;;;;;;;;;23.90;99.90;;;;;;5068075;28;20314;-84
2021/10/26 09:21:43;;;;;;;;;;;23.30;99.90;;;;;;5062647;28;19916;-84
2021/10/26 09:24:10;;;;;;;;;;;23.10;99.90;;;;;;5071550;28;19911;-84
2021/10/26 09:26:46;;;;;;;;;;;22.70;99.90;;;;;;5060894;28;19908;-84
2021/10/26 09:29:12;;;;;;;;;;;23.10;99.90;;;;;;5065850;28;20344;-84
2021/10/26 09:31:39;;;;;;;;;;;23.30;99.90;;;;;;5060940;28;19920;-84
2021/10/26 09:34:06;;;;;;;;;;;24.30;99.90;;;;;;5058918;28;19905;-84
2021/10/26 09:36:33;;;;;;;;;;;26.20;99.90;;;;;;5074331;28;20023;-84
2021/10/26 09:39:05;;;;;;;;;;;26.60;99.90;;;;;;5073250;28;19904;-84
2021/10/26 09:41:34;;;;;;;;;;;28.30;99.90;;;;;;5072804;28;19999;-85
2021/10/26 09:44:12;;;;;;;;;;;29.10;99.90;;;;;;5073749;28;19912;-85
2021/10/26 09:46:39;;;;;;;;;;;28.80;99.90;;;;;;5078916;28;19947;-84
2021/10/26 09:49:18;;;;;;;;;;;28.30;99.90;;;;;;5073016;28;19958;-85
2021/10/26 09:51:45;;;;;;;;;;;28.00;99.90;;;;;;5069835;28;19912;-84
2021/10/26 09:54:15;;;;;;;;;;;27.90;99.90;;;;;;5075549;28;19904;-83
2021/10/26 09:56:44;;;;;;;;;;;26.50;99.90;;;;;;5058276;28;19908;-84
2021/10/26 09:59:14;;;;;;;;;;;24.90;99.90;;;;;;5075492;28;19904;-83
2021/10/26 10:01:53;;;;;;;;;;;23.30;99.90;;;;;;5078666;28;19909;-84
2021/10/26 10:04:29;;;;;;;;;;;22.20;99.90;;;;;;5058833;28;19913;-83
2021/10/26 10:06:55;;;;;;;;;;;21.30;99.90;;;;;;5079387;28;19912;-83
2021/10/26 10:09:21;;;;;;;;;;;20.60;99.90;;;;;;5057688;28;20356;-83
2021/10/26 10:12:01;;;;;;;;;;;20.30;99.90;;;;;;5077400;28;19938;-83
2021/10/26 10:14:26;;;;;;;;;;;20.40;99.90;;;;;;5082480;28;19915;-84
2021/10/26 10:16:52;;;;;;;;;;;20.50;99.90;;;;;;5086189;28;19908;-83
2021/10/26 10:19:18;;;;;;;;;;;21.10;99.90;;;;;;5083527;28;20022;-84
2021/10/26 10:21:45;;;;;;;;;;;21.60;99.90;;;;;;5064728;28;20419;-84
2021/10/26 10:24:12;;;;;;;;;;;22.00;99.90;;;;;;5084061;28;19954;-83
2021/10/26 10:26:38;;;;;;;;;;;22.30;99.90;;;;;;5082437;28;19919;-82
2021/10/26 10:29:03;;;;;;;;;;;22.30;99.90;;;;;;5056949;28;19912;-83
2021/10/26 10:31:29;;;;;;;;;;;22.50;99.90;;;;;;5059257;28;19916;-83
2021/10/26 10:33:57;;;;;;;;;;;22.70;99.90;;;;;;5078235;28;19909;-82
2021/10/26 10:36:23;;;;;;;;;;;22.70;99.90;;;;;;5077535;28;19916;-82
2021/10/26 10:38:49;;;;;;;;;;;23.60;99.90;;;;;;5078811;28;19908;-80
2021/10/26 10:41:30;;;;;;;;;;;24.80;99.90;;;;;;5058352;28;19909;-82
2021/10/26 10:43:59;;;;;;;;;;;25.10;99.90;;;;;;5083873;28;20327;-82
2021/10/26 10:46:40;;;;;;;;;;;24.30;99.90;;;;;;5062378;28;19908;-82
2021/10/26 10:49:18;;;;;;;;;;;23.50;99.90;;;;;;5087182;28;19988;-82
2021/10/26 10:51:56;;;;;;;;;;;23.30;99.90;;;;;;5078562;28;19913;-83
2021/10/26 10:57:24;;;;;;;;;;;22.40;99.90;;;;;;5075187;28;19962;-82
2021/10/26 10:59:50;;;;;;;;;;;21.70;99.90;;;;;;5060438;28;19908;-81
2021/10/26 11:02:26;;;;;;;;;;;21.10;99.90;;;;;;5074260;28;19912;-82
2021/10/26 11:04:53;;;;;;;;;;;20.60;99.90;;;;;;5057059;28;19913;-82
2021/10/26 11:07:38;;;;;;;;;;;20.30;99.90;;;;;;5075322;28;20343;-82
2021/10/26 11:10:03;;;;;;;;;;;20.10;99.90;;;;;;5085204;28;19909;-82
2021/10/26 11:12:30;;;;;;;;;;;20.40;99.90;;;;;;5074939;28;19913;-82
2021/10/26 11:15:00;;;;;;;;;;;20.90;99.90;;;;;;5071785;28;19909;-82
2021/10/26 11:17:35;;;;;;;;;;;21.00;99.90;;;;;;5056838;28;19909;-82
2021/10/26 11:20:19;;;;;;;;;;;21.60;99.90;;;;;;5067420;28;19920;-82
2021/10/26 11:22:45;;;;;;;;;;;22.10;99.90;;;;;;5078712;28;19920;-83
2021/10/26 11:25:16;;;;;;;;;;;22.80;99.90;;;;;;5061315;28;19915;-83
2021/10/26 11:27:42;;;;;;;;;;;22.80;99.90;;;;;;5061874;28;19919;-82
2021/10/26 11:30:26;;;;;;;;;;;22.70;99.90;;;;;;5077855;28;19908;-83
2021/10/26 11:33:10;;;;;;;;;;;22.60;99.90;;;;;;5087908;28;19916;-83
2021/10/26 11:35:55;;;;;;;;;;;22.30;99.90;;;;;;5078279;28;19915;-82
2021/10/26 11:38:28;;;;;;;;;;;22.00;99.90;;;;;;5069932;28;20026;-83
2021/10/26 11:41:04;;;;;;;;;;;22.30;99.90;;;;;;5074776;28;19913;-82
2021/10/26 11:43:42;;;;;;;;;;;22.80;99.90;;;;;;5072391;28;19951;-83
2021/10/26 11:46:09;;;;;;;;;;;23.60;99.90;;;;;;5078428;28;19991;-83
2021/10/26 11:48:42;;;;;;;;;;;24.20;99.90;;;;;;5084027;28;19908;-83
2021/10/26 11:51:14;;;;;;;;;;;24.60;99.90;;;;;;5082744;28;20321;-83
2021/10/26 11:53:39;;;;;;;;;;;25.40;99.90;;;;;;5079759;28;20005;-83
2021/10/26 11:56:26;;;;;;;;;;;26.10;99.90;;;;;;5076095;28;20323;-83
2021/10/26 11:58:59;;;;;;;;;;;26.70;99.90;;;;;;5089960;28;19916;-83
2021/10/26 12:01:33;;;;;;;;;;;27.10;99.90;;;;;;5102428;28;19973;-83
2021/10/26 12:03:59;;;;;;;;;;;27.10;99.90;;;;;;5100287;28;19930;-83
2021/10/26 12:06:32;;;;;;;;;;;26.40;99.90;;;;;;5099900;28;19911;-82
2021/10/26 12:08:59;;;;;;;;;;;25.90;99.90;;;;;;5089890;28;19960;-81
2021/10/26 12:11:44;;;;;;;;;;;25.90;99.90;;;;;;5092198;28;19955;-84
2021/10/26 12:14:10;;;;;;;;;;;26.20;99.90;;;;;;5062803;28;19909;-83
2021/10/26 12:16:36;;;;;;;;;;;25.60;99.90;;;;;;5075588;28;19909;-84
2021/10/26 12:19:02;;;;;;;;;;;25.20;99.90;;;;;;5085415;28;19976;-84
2021/10/26 12:21:28;;;;;;;;;;;25.10;99.90;;;;;;5086088;28;19908;-83
2021/10/26 12:23:53;;;;;;;;;;;24.80;99.90;;;;;;5078810;28;19912;-83
2021/10/26 12:26:19;;;;;;;;;;;24.40;99.90;;;;;;5083893;28;19909;-83
2021/10/26 12:28:57;;;;;;;;;;;23.60;99.90;;;;;;5085994;28;20290;-83
2021/10/26 12:31:26;;;;;;;;;;;23.40;99.90;;;;;;5085519;28;19931;-84
2021/10/26 12:34:01;;;;;;;;;;;24.00;99.90;;;;;;5069836;28;20364;-83
2021/10/26 12:36:27;;;;;;;;;;;24.20;99.90;;;;;;5084534;28;19909;-84
2021/10/26 12:39:01;;;;;;;;;;;25.00;99.90;;;;;;5086019;28;19912;-83
2021/10/26 12:41:35;;;;;;;;;;;24.90;99.90;;;;;;5060241;28;20323;-84
2021/10/26 12:44:03;;;;;;;;;;;25.50;99.90;;;;;;5091081;28;19971;-84
2021/10/26 12:46:29;;;;;;;;;;;25.20;99.90;;;;;;5086301;28;19998;-84
2021/10/26 12:49:07;;;;;;;;;;;24.30;99.90;;;;;;5085570;28;19916;-84
2021/10/26 12:51:33;;;;;;;;;;;23.80;99.90;;;;;;5090143;28;19945;-83
2021/10/26 12:54:10;;;;;;;;;;;24.00;99.90;;;;;;5071652;28;19909;-83
2021/10/26 12:56:43;;;;;;;;;;;24.50;99.90;;;;;;5090541;28;19909;-83
2021/10/26 12:59:08;;;;;;;;;;;24.80;99.90;;;;;;5089596;28;19912;-83
2021/10/26 13:01:38;;;;;;;;;;;24.60;99.90;;;;;;5090328;28;19931;-82
2021/10/26 13:04:10;;;;;;;;;;;24.70;99.90;;;;;;5085990;28;19909;-83
2021/10/26 13:06:40;;;;;;;;;;;24.90;99.90;;;;;;5059578;28;20347;-83
2021/10/26 13:09:09;;;;;;;;;;;24.90;99.90;;;;;;5078555;28;19908;-83
2021/10/26 13:11:35;;;;;;;;;;;24.80;99.90;;;;;;5078741;28;20372;-83
2021/10/26 13:14:02;;;;;;;;;;;24.50;99.90;;;;;;5072600;28;19912;-83
2021/10/26 13:16:28;;;;;;;;;;;23.80;99.90;;;;;;5078729;28;19951;-83
2021/10/26 13:19:07;;;;;;;;;;;23.00;99.90;;;;;;5078350;28;19919;-82
2021/10/26 13:21:32;;;;;;;;;;;22.30;99.90;;;;;;5078875;28;19965;-83
2021/10/26 13:23:58;;;;;;;;;;;21.60;99.90;;;;;;5086379;28;19913;-83
2021/10/26 13:26:23;;;;;;;;;;;21.00;99.90;;;;;;5084206;28;19938;-83
2021/10/26 13:28:49;;;;;;;;;;;20.50;99.90;;;;;;5083741;28;19931;-83
2021/10/26 13:31:20;;;;;;;;;;;20.10;99.90;;;;;;5066009;28;19915;-83
2021/10/26 13:33:45;;;;;;;;;;;19.70;99.90;;;;;;5082837;28;19909;-83
2021/10/26 13:36:11;;;;;;;;;;;19.30;99.90;;;;;;5084337;28;19920;-83
2021/10/26 13:38:37;;;;;;;;;;;19.10;99.90;;;;;;5083335;28;19952;-83
2021/10/26 13:41:04;;;;;;;;;;;18.80;99.90;;;;;;5064580;28;19908;-82
2021/10/26 13:43:30;;;;;;;;;;;18.60;99.90;;;;;;5079644;28;19980;-83
2021/10/26 13:45:58;;;;;;;;;;;18.50;99.90;;;;;;5079646;28;19908;-83
2021/10/26 13:48:24;;;;;;;;;;;18.50;99.90;;;;;;5062434;28;19909;-83
2021/10/26 13:50:50;;;;;;;;;;;18.70;99.90;;;;;;5082242;28;19915;-84
2021/10/26 13:53:16;;;;;;;;;;;18.90;99.90;;;;;;5102752;28;20010;-83
2021/10/26 13:55:42;;;;;;;;;;;19.20;99.90;;;;;;5088321;28;19916;-84
2021/10/26 13:58:09;;;;;;;;;;;19.30;99.90;;;;;;5070014;28;19908;-83
2021/10/26 14:00:38;;;;;;;;;;;19.30;99.90;;;;;;5083273;28;20364;-83
2021/10/26 14:03:04;;;;;;;;;;;19.30;99.90;;;;;;5088863;28;19932;-83
2021/10/26 14:05:29;;;;;;;;;;;19.30;99.90;;;;;;5084239;28;19908;-83
2021/10/26 14:07:56;;;;;;;;;;;19.30;99.90;;;;;;5091433;28;19909;-83
2021/10/26 14:10:22;;;;;;;;;;;19.50;99.90;;;;;;5084431;28;19999;-83
2021/10/26 14:12:47;;;;;;;;;;;19.30;99.90;;;;;;5080987;28;20021;-82
2021/10/26 14:15:14;;;;;;;;;;;19.20;99.90;;;;;;5078781;28;19908;-82
2021/10/26 14:17:39;;;;;;;;;;;19.10;99.90;;;;;;5076490;28;19962;-82
2021/10/26 14:20:05;;;;;;;;;;;18.90;99.90;;;;;;5058173;28;19912;-83
2021/10/26 14:22:31;;;;;;;;;;;18.80;99.90;;;;;;5080274;28;20345;-83
2021/10/26 14:24:56;;;;;;;;;;;18.70;99.90;;;;;;5057294;28;19938;-83
2021/10/26 14:27:22;;;;;;;;;;;18.50;99.90;;;;;;5059167;28;19983;-84
2021/10/26 14:29:47;;;;;;;;;;;18.40;99.90;;;;;;5066197;28;19908;-84
2021/10/26 14:32:13;;;;;;;;;;;18.20;99.90;;;;;;5078403;28;19959;-83
2021/10/26 14:34:39;;;;;;;;;;;18.00;99.90;;;;;;5076418;28;19909;-83